sensor_id;sensor_type;location;lat;lon;timestamp;P1;durP1;ratioP1;P2;durP2;ratioP2
58250;SDS011;51449;51.676;5.812;2022-10-16T00:00:23;5.93;;;4.23;;
58250;SDS011;51449;51.676;5.812;2022-10-16T00:02:45;5.73;;;4.23;;
58250;SDS011;51449;51.676;5.812;2022-10-16T00:05:07;8.07;;;4.77;;
58250;SDS011;51449;51.676;5.812;2022-10-16T00:07:29;6.03;;;4.57;;
58250;SDS011;51449;51.676;5.812;2022-10-16T00:09:50;8.07;;;4.23;;
58250;SDS011;51449;51.676;5.812;2022-10-16T00:12:12;7.33;;;4.90;;
58250;SDS011;51449;51.676;5.812;2022-10-16T00:14:34;7.33;;;4.77;;
58250;SDS011;51449;51.676;5.812;2022-10-16T00:16:56;6.37;;;4.70;;
58250;SDS011;51449;51.676;5.812;2022-10-16T00:19:18;7.90;;;4.53;;
58250;SDS011;51449;51.676;5.812;2022-10-16T00:21:39;6.80;;;4.50;;
58250;SDS011;51449;51.676;5.812;2022-10-16T00:24:03;6.33;;;4.73;;
58250;SDS011;51449;51.676;5.812;2022-10-16T00:26:29;7.33;;;4.93;;
58250;SDS011;51449;51.676;5.812;2022-10-16T00:28:54;7.23;;;5.03;;
58250;SDS011;51449;51.676;5.812;2022-10-16T00:31:17;6.90;;;5.07;;
58250;SDS011;51449;51.676;5.812;2022-10-16T00:33:42;5.87;;;4.63;;
58250;SDS011;51449;51.676;5.812;2022-10-16T00:36:05;6.80;;;4.57;;
58250;SDS011;51449;51.676;5.812;2022-10-16T00:38:29;5.90;;;4.65;;
58250;SDS011;51449;51.676;5.812;2022-10-16T00:40:51;4.50;;;4.00;;
58250;SDS011;51449;51.676;5.812;2022-10-16T00:43:31;5.53;;;4.50;;
58250;SDS011;51449;51.676;5.812;2022-10-16T00:46:10;7.00;;;4.37;;
58250;SDS011;51449;51.676;5.812;2022-10-16T00:48:52;4.73;;;4.00;;
58250;SDS011;51449;51.676;5.812;2022-10-16T00:51:25;6.83;;;4.70;;
58250;SDS011;51449;51.676;5.812;2022-10-16T00:54:02;5.17;;;3.50;;
58250;SDS011;51449;51.676;5.812;2022-10-16T00:56:29;8.53;;;3.70;;
58250;SDS011;51449;51.676;5.812;2022-10-16T00:58:51;3.90;;;3.50;;
58250;SDS011;51449;51.676;5.812;2022-10-16T01:01:13;4.60;;;3.17;;
58250;SDS011;51449;51.676;5.812;2022-10-16T01:03:36;6.60;;;3.77;;
58250;SDS011;51449;51.676;5.812;2022-10-16T01:06:02;4.83;;;3.07;;
58250;SDS011;51449;51.676;5.812;2022-10-16T01:08:49;4.73;;;3.23;;
58250;SDS011;51449;51.676;5.812;2022-10-16T01:14:54;5.07;;;3.03;;
58250;SDS011;51449;51.676;5.812;2022-10-16T01:17:45;6.20;;;3.37;;
58250;SDS011;51449;51.676;5.812;2022-10-16T01:20:30;4.47;;;3.30;;
58250;SDS011;51449;51.676;5.812;2022-10-16T01:23:21;3.73;;;2.63;;
58250;SDS011;51449;51.676;5.812;2022-10-16T01:28:53;5.80;;;3.10;;
58250;SDS011;51449;51.676;5.812;2022-10-16T01:31:26;6.07;;;3.20;;
58250;SDS011;51449;51.676;5.812;2022-10-16T01:33:56;6.93;;;3.17;;
58250;SDS011;51449;51.676;5.812;2022-10-16T01:36:29;4.33;;;3.17;;
58250;SDS011;51449;51.676;5.812;2022-10-16T01:39:05;4.60;;;3.17;;
58250;SDS011;51449;51.676;5.812;2022-10-16T01:41:33;4.40;;;2.87;;
58250;SDS011;51449;51.676;5.812;2022-10-16T01:44:10;4.13;;;3.10;;
58250;SDS011;51449;51.676;5.812;2022-10-16T01:46:42;5.03;;;2.80;;
58250;SDS011;51449;51.676;5.812;2022-10-16T01:49:09;5.53;;;3.60;;
58250;SDS011;51449;51.676;5.812;2022-10-16T01:51:33;5.28;;;2.70;;
58250;SDS011;51449;51.676;5.812;2022-10-16T01:56:22;4.10;;;2.83;;
58250;SDS011;51449;51.676;5.812;2022-10-16T01:58:48;3.28;;;2.83;;
58250;SDS011;51449;51.676;5.812;2022-10-16T02:01:29;5.80;;;3.07;;
58250;SDS011;51449;51.676;5.812;2022-10-16T02:03:55;3.57;;;2.50;;
58250;SDS011;51449;51.676;5.812;2022-10-16T02:06:24;4.10;;;2.80;;
58250;SDS011;51449;51.676;5.812;2022-10-16T02:08:47;3.90;;;2.63;;
58250;SDS011;51449;51.676;5.812;2022-10-16T02:11:08;5.33;;;3.17;;
58250;SDS011;51449;51.676;5.812;2022-10-16T02:13:33;4.17;;;2.83;;
58250;SDS011;51449;51.676;5.812;2022-10-16T02:16:06;4.70;;;2.70;;
58250;SDS011;51449;51.676;5.812;2022-10-16T02:18:28;4.07;;;2.40;;
58250;SDS011;51449;51.676;5.812;2022-10-16T02:20:55;3.40;;;2.47;;
58250;SDS011;51449;51.676;5.812;2022-10-16T02:26:29;3.05;;;2.42;;
58250;SDS011;51449;51.676;5.812;2022-10-16T02:29:01;4.20;;;2.83;;
58250;SDS011;51449;51.676;5.812;2022-10-16T02:31:32;3.57;;;2.60;;
58250;SDS011;51449;51.676;5.812;2022-10-16T02:33:59;3.40;;;2.60;;
58250;SDS011;51449;51.676;5.812;2022-10-16T02:36:26;4.20;;;2.77;;
58250;SDS011;51449;51.676;5.812;2022-10-16T02:38:48;3.53;;;2.70;;
58250;SDS011;51449;51.676;5.812;2022-10-16T02:41:11;7.87;;;2.70;;
58250;SDS011;51449;51.676;5.812;2022-10-16T02:43:33;4.20;;;3.10;;
58250;SDS011;51449;51.676;5.812;2022-10-16T02:45:55;3.37;;;2.67;;
58250;SDS011;51449;51.676;5.812;2022-10-16T02:48:17;2.97;;;2.30;;
58250;SDS011;51449;51.676;5.812;2022-10-16T02:50:39;2.53;;;2.33;;
58250;SDS011;51449;51.676;5.812;2022-10-16T02:53:01;5.30;;;2.43;;
58250;SDS011;51449;51.676;5.812;2022-10-16T02:55:23;5.03;;;2.87;;
58250;SDS011;51449;51.676;5.812;2022-10-16T02:57:44;2.67;;;2.23;;
58250;SDS011;51449;51.676;5.812;2022-10-16T03:00:08;5.97;;;2.60;;
58250;SDS011;51449;51.676;5.812;2022-10-16T03:02:33;3.13;;;2.43;;
58250;SDS011;51449;51.676;5.812;2022-10-16T03:04:55;4.70;;;2.63;;
58250;SDS011;51449;51.676;5.812;2022-10-16T03:07:17;4.63;;;2.47;;
58250;SDS011;51449;51.676;5.812;2022-10-16T03:09:38;5.00;;;2.83;;
58250;SDS011;51449;51.676;5.812;2022-10-16T03:12:00;3.47;;;2.40;;
58250;SDS011;51449;51.676;5.812;2022-10-16T03:14:22;3.13;;;2.40;;
58250;SDS011;51449;51.676;5.812;2022-10-16T03:16:44;4.67;;;2.70;;
58250;SDS011;51449;51.676;5.812;2022-10-16T03:19:06;2.80;;;2.40;;
58250;SDS011;51449;51.676;5.812;2022-10-16T03:21:28;4.37;;;2.43;;
58250;SDS011;51449;51.676;5.812;2022-10-16T03:23:50;3.87;;;2.50;;
58250;SDS011;51449;51.676;5.812;2022-10-16T03:26:12;3.00;;;2.30;;
58250;SDS011;51449;51.676;5.812;2022-10-16T03:28:34;3.03;;;2.40;;
58250;SDS011;51449;51.676;5.812;2022-10-16T03:30:56;3.90;;;2.90;;
58250;SDS011;51449;51.676;5.812;2022-10-16T03:33:18;3.73;;;2.40;;
58250;SDS011;51449;51.676;5.812;2022-10-16T03:35:40;3.53;;;2.60;;
58250;SDS011;51449;51.676;5.812;2022-10-16T03:38:01;4.77;;;2.77;;
58250;SDS011;51449;51.676;5.812;2022-10-16T03:40:23;3.07;;;2.20;;
58250;SDS011;51449;51.676;5.812;2022-10-16T03:42:45;3.67;;;2.40;;
58250;SDS011;51449;51.676;5.812;2022-10-16T03:45:07;4.60;;;2.50;;
58250;SDS011;51449;51.676;5.812;2022-10-16T03:47:30;3.47;;;2.40;;
58250;SDS011;51449;51.676;5.812;2022-10-16T03:49:54;4.63;;;2.45;;
58250;SDS011;51449;51.676;5.812;2022-10-16T03:52:16;3.33;;;2.40;;
58250;SDS011;51449;51.676;5.812;2022-10-16T03:54:39;4.07;;;2.63;;
58250;SDS011;51449;51.676;5.812;2022-10-16T03:57:01;2.73;;;2.20;;
58250;SDS011;51449;51.676;5.812;2022-10-16T03:59:23;4.20;;;2.60;;
58250;SDS011;51449;51.676;5.812;2022-10-16T04:01:44;2.70;;;2.23;;
58250;SDS011;51449;51.676;5.812;2022-10-16T04:04:06;3.07;;;2.67;;
58250;SDS011;51449;51.676;5.812;2022-10-16T04:06:28;3.13;;;2.27;;
58250;SDS011;51449;51.676;5.812;2022-10-16T04:08:50;3.53;;;2.40;;
58250;SDS011;51449;51.676;5.812;2022-10-16T04:11:12;3.77;;;2.20;;
58250;SDS011;51449;51.676;5.812;2022-10-16T04:13:34;5.23;;;2.50;;
58250;SDS011;51449;51.676;5.812;2022-10-16T04:15:55;3.33;;;2.40;;
58250;SDS011;51449;51.676;5.812;2022-10-16T04:18:17;4.00;;;2.53;;
58250;SDS011;51449;51.676;5.812;2022-10-16T04:20:40;4.60;;;2.63;;
58250;SDS011;51449;51.676;5.812;2022-10-16T04:23:02;3.03;;;2.40;;
58250;SDS011;51449;51.676;5.812;2022-10-16T04:25:24;2.33;;;2.10;;
58250;SDS011;51449;51.676;5.812;2022-10-16T04:27:46;3.80;;;2.53;;
58250;SDS011;51449;51.676;5.812;2022-10-16T04:30:08;4.17;;;2.57;;
58250;SDS011;51449;51.676;5.812;2022-10-16T04:32:30;3.93;;;2.30;;
58250;SDS011;51449;51.676;5.812;2022-10-16T04:34:52;2.93;;;2.47;;
58250;SDS011;51449;51.676;5.812;2022-10-16T04:37:14;3.00;;;2.63;;
58250;SDS011;51449;51.676;5.812;2022-10-16T04:39:36;2.77;;;2.40;;
58250;SDS011;51449;51.676;5.812;2022-10-16T04:41:58;2.53;;;2.20;;
58250;SDS011;51449;51.676;5.812;2022-10-16T04:44:20;4.53;;;2.50;;
58250;SDS011;51449;51.676;5.812;2022-10-16T04:46:42;3.23;;;2.50;;
58250;SDS011;51449;51.676;5.812;2022-10-16T04:49:04;3.73;;;2.43;;
58250;SDS011;51449;51.676;5.812;2022-10-16T04:51:26;2.53;;;2.30;;
58250;SDS011;51449;51.676;5.812;2022-10-16T04:53:49;4.20;;;2.70;;
58250;SDS011;51449;51.676;5.812;2022-10-16T04:56:10;4.40;;;2.50;;
58250;SDS011;51449;51.676;5.812;2022-10-16T04:58:32;7.70;;;2.80;;
58250;SDS011;51449;51.676;5.812;2022-10-16T05:00:54;3.37;;;2.03;;
58250;SDS011;51449;51.676;5.812;2022-10-16T05:03:16;5.13;;;2.20;;
58250;SDS011;51449;51.676;5.812;2022-10-16T05:05:41;4.60;;;2.50;;
58250;SDS011;51449;51.676;5.812;2022-10-16T05:08:06;3.30;;;2.00;;
58250;SDS011;51449;51.676;5.812;2022-10-16T05:10:27;5.43;;;2.27;;
58250;SDS011;51449;51.676;5.812;2022-10-16T05:12:49;4.47;;;2.23;;
58250;SDS011;51449;51.676;5.812;2022-10-16T05:15:12;2.47;;;2.27;;
58250;SDS011;51449;51.676;5.812;2022-10-16T05:17:34;3.57;;;2.30;;
58250;SDS011;51449;51.676;5.812;2022-10-16T05:19:58;2.97;;;2.25;;
58250;SDS011;51449;51.676;5.812;2022-10-16T05:22:20;3.97;;;2.50;;
58250;SDS011;51449;51.676;5.812;2022-10-16T05:24:42;3.30;;;2.10;;
58250;SDS011;51449;51.676;5.812;2022-10-16T05:27:03;3.50;;;2.43;;
58250;SDS011;51449;51.676;5.812;2022-10-16T05:29:25;4.33;;;2.40;;
58250;SDS011;51449;51.676;5.812;2022-10-16T05:31:49;4.43;;;2.47;;
58250;SDS011;51449;51.676;5.812;2022-10-16T05:34:15;4.27;;;2.63;;
58250;SDS011;51449;51.676;5.812;2022-10-16T05:36:37;4.67;;;2.23;;
58250;SDS011;51449;51.676;5.812;2022-10-16T05:38:59;4.43;;;2.70;;
58250;SDS011;51449;51.676;5.812;2022-10-16T05:41:20;4.27;;;2.50;;
58250;SDS011;51449;51.676;5.812;2022-10-16T05:43:44;3.40;;;2.60;;
58250;SDS011;51449;51.676;5.812;2022-10-16T05:46:06;3.23;;;2.23;;
58250;SDS011;51449;51.676;5.812;2022-10-16T05:48:28;3.60;;;2.63;;
58250;SDS011;51449;51.676;5.812;2022-10-16T05:51:04;3.30;;;2.43;;
58250;SDS011;51449;51.676;5.812;2022-10-16T05:53:31;4.47;;;2.60;;
58250;SDS011;51449;51.676;5.812;2022-10-16T05:55:55;3.53;;;2.80;;
58250;SDS011;51449;51.676;5.812;2022-10-16T05:58:18;5.83;;;2.80;;
58250;SDS011;51449;51.676;5.812;2022-10-16T06:00:39;5.43;;;2.60;;
58250;SDS011;51449;51.676;5.812;2022-10-16T06:03:01;4.17;;;2.60;;
58250;SDS011;51449;51.676;5.812;2022-10-16T06:05:24;3.80;;;2.50;;
58250;SDS011;51449;51.676;5.812;2022-10-16T06:07:47;5.73;;;2.80;;
58250;SDS011;51449;51.676;5.812;2022-10-16T06:10:09;3.10;;;2.40;;
58250;SDS011;51449;51.676;5.812;2022-10-16T06:12:31;3.90;;;2.47;;
58250;SDS011;51449;51.676;5.812;2022-10-16T06:14:53;4.00;;;2.63;;
58250;SDS011;51449;51.676;5.812;2022-10-16T06:17:15;3.70;;;2.57;;
58250;SDS011;51449;51.676;5.812;2022-10-16T06:19:37;6.90;;;2.70;;
58250;SDS011;51449;51.676;5.812;2022-10-16T06:21:58;4.23;;;2.70;;
58250;SDS011;51449;51.676;5.812;2022-10-16T06:24:21;5.77;;;2.63;;
58250;SDS011;51449;51.676;5.812;2022-10-16T06:26:43;4.50;;;2.50;;
58250;SDS011;51449;51.676;5.812;2022-10-16T06:29:05;5.07;;;2.63;;
58250;SDS011;51449;51.676;5.812;2022-10-16T06:31:29;4.10;;;2.43;;
58250;SDS011;51449;51.676;5.812;2022-10-16T06:33:52;4.33;;;2.37;;
58250;SDS011;51449;51.676;5.812;2022-10-16T06:36:15;2.57;;;2.27;;
58250;SDS011;51449;51.676;5.812;2022-10-16T06:38:39;2.70;;;2.50;;
58250;SDS011;51449;51.676;5.812;2022-10-16T06:41:01;7.03;;;2.90;;
58250;SDS011;51449;51.676;5.812;2022-10-16T06:43:25;4.60;;;3.00;;
58250;SDS011;51449;51.676;5.812;2022-10-16T06:45:54;4.97;;;2.80;;
58250;SDS011;51449;51.676;5.812;2022-10-16T06:48:18;3.67;;;2.87;;
58250;SDS011;51449;51.676;5.812;2022-10-16T06:50:40;3.87;;;2.80;;
58250;SDS011;51449;51.676;5.812;2022-10-16T06:53:01;5.57;;;2.60;;
58250;SDS011;51449;51.676;5.812;2022-10-16T06:55:23;4.73;;;2.83;;
58250;SDS011;51449;51.676;5.812;2022-10-16T06:57:46;4.23;;;2.87;;
58250;SDS011;51449;51.676;5.812;2022-10-16T07:00:10;3.95;;;2.55;;
58250;SDS011;51449;51.676;5.812;2022-10-16T07:02:32;5.27;;;2.57;;
58250;SDS011;51449;51.676;5.812;2022-10-16T07:04:54;4.20;;;3.10;;
58250;SDS011;51449;51.676;5.812;2022-10-16T07:07:17;3.30;;;3.00;;
58250;SDS011;51449;51.676;5.812;2022-10-16T07:09:39;3.70;;;2.90;;
58250;SDS011;51449;51.676;5.812;2022-10-16T07:12:02;4.13;;;3.13;;
58250;SDS011;51449;51.676;5.812;2022-10-16T07:14:24;4.20;;;3.40;;
58250;SDS011;51449;51.676;5.812;2022-10-16T07:16:47;7.40;;;2.83;;
58250;SDS011;51449;51.676;5.812;2022-10-16T07:19:10;3.17;;;2.67;;
58250;SDS011;51449;51.676;5.812;2022-10-16T07:21:34;3.63;;;2.95;;
58250;SDS011;51449;51.676;5.812;2022-10-16T07:23:59;3.93;;;2.90;;
58250;SDS011;51449;51.676;5.812;2022-10-16T07:26:23;3.10;;;2.77;;
58250;SDS011;51449;51.676;5.812;2022-10-16T07:28:46;3.75;;;2.63;;
58250;SDS011;51449;51.676;5.812;2022-10-16T07:31:10;4.83;;;2.67;;
58250;SDS011;51449;51.676;5.812;2022-10-16T07:33:34;4.80;;;2.87;;
58250;SDS011;51449;51.676;5.812;2022-10-16T07:35:56;4.63;;;2.63;;
58250;SDS011;51449;51.676;5.812;2022-10-16T07:38:19;4.93;;;2.50;;
58250;SDS011;51449;51.676;5.812;2022-10-16T07:40:43;3.53;;;2.38;;
58250;SDS011;51449;51.676;5.812;2022-10-16T07:43:05;4.07;;;2.60;;
58250;SDS011;51449;51.676;5.812;2022-10-16T07:45:27;2.70;;;2.23;;
58250;SDS011;51449;51.676;5.812;2022-10-16T07:47:49;3.23;;;2.20;;
58250;SDS011;51449;51.676;5.812;2022-10-16T07:50:10;4.07;;;2.30;;
58250;SDS011;51449;51.676;5.812;2022-10-16T07:52:32;3.83;;;2.43;;
58250;SDS011;51449;51.676;5.812;2022-10-16T07:54:54;2.53;;;2.13;;
58250;SDS011;51449;51.676;5.812;2022-10-16T07:57:21;5.03;;;2.30;;
58250;SDS011;51449;51.676;5.812;2022-10-16T07:59:42;3.23;;;2.27;;
58250;SDS011;51449;51.676;5.812;2022-10-16T08:02:04;4.80;;;2.10;;
58250;SDS011;51449;51.676;5.812;2022-10-16T08:04:26;2.50;;;1.60;;
58250;SDS011;51449;51.676;5.812;2022-10-16T08:06:48;5.23;;;2.57;;
58250;SDS011;51449;51.676;5.812;2022-10-16T08:09:10;4.33;;;2.27;;
58250;SDS011;51449;51.676;5.812;2022-10-16T08:11:32;3.13;;;2.00;;
58250;SDS011;51449;51.676;5.812;2022-10-16T08:13:54;3.97;;;2.80;;
58250;SDS011;51449;51.676;5.812;2022-10-16T08:16:16;4.03;;;2.10;;
58250;SDS011;51449;51.676;5.812;2022-10-16T08:18:39;3.43;;;2.37;;
58250;SDS011;51449;51.676;5.812;2022-10-16T08:21:03;5.80;;;2.30;;
58250;SDS011;51449;51.676;5.812;2022-10-16T08:23:27;3.08;;;2.45;;
58250;SDS011;51449;51.676;5.812;2022-10-16T08:25:49;3.50;;;2.00;;
58250;SDS011;51449;51.676;5.812;2022-10-16T08:28:11;3.27;;;1.90;;
58250;SDS011;51449;51.676;5.812;2022-10-16T08:30:33;3.97;;;1.90;;
58250;SDS011;51449;51.676;5.812;2022-10-16T08:32:56;6.13;;;2.13;;
58250;SDS011;51449;51.676;5.812;2022-10-16T08:35:19;4.13;;;1.80;;
58250;SDS011;51449;51.676;5.812;2022-10-16T08:37:41;4.17;;;2.00;;
58250;SDS011;51449;51.676;5.812;2022-10-16T08:40:05;4.40;;;2.10;;
58250;SDS011;51449;51.676;5.812;2022-10-16T08:48:58;9.23;;;2.07;;
58250;SDS011;51449;51.676;5.812;2022-10-16T08:51:24;3.60;;;2.00;;
58250;SDS011;51449;51.676;5.812;2022-10-16T08:56:17;4.27;;;2.20;;
58250;SDS011;51449;51.676;5.812;2022-10-16T08:58:40;3.50;;;2.00;;
58250;SDS011;51449;51.676;5.812;2022-10-16T09:01:03;4.30;;;2.00;;
58250;SDS011;51449;51.676;5.812;2022-10-16T09:06:55;3.17;;;2.10;;
58250;SDS011;51449;51.676;5.812;2022-10-16T09:14:47;5.53;;;2.10;;
58250;SDS011;51449;51.676;5.812;2022-10-16T09:25:36;5.23;;;2.30;;
58250;SDS011;51449;51.676;5.812;2022-10-16T09:28:04;6.40;;;2.37;;
58250;SDS011;51449;51.676;5.812;2022-10-16T09:30:26;5.80;;;2.13;;
58250;SDS011;51449;51.676;5.812;2022-10-16T09:32:51;4.60;;;1.70;;
58250;SDS011;51449;51.676;5.812;2022-10-16T09:35:16;4.93;;;2.30;;
58250;SDS011;51449;51.676;5.812;2022-10-16T09:37:48;4.10;;;1.90;;
58250;SDS011;51449;51.676;5.812;2022-10-16T09:43:38;6.30;;;1.97;;
58250;SDS011;51449;51.676;5.812;2022-10-16T09:45:57;4.47;;;1.70;;
58250;SDS011;51449;51.676;5.812;2022-10-16T09:48:23;5.73;;;1.77;;
58250;SDS011;51449;51.676;5.812;2022-10-16T09:51:02;5.37;;;2.00;;
58250;SDS011;51449;51.676;5.812;2022-10-16T09:53:36;4.85;;;1.80;;
58250;SDS011;51449;51.676;5.812;2022-10-16T09:56:05;4.00;;;1.90;;
58250;SDS011;51449;51.676;5.812;2022-10-16T09:58:33;5.67;;;1.93;;
58250;SDS011;51449;51.676;5.812;2022-10-16T10:00:55;10.77;;;2.20;;
58250;SDS011;51449;51.676;5.812;2022-10-16T10:03:28;5.70;;;2.03;;
58250;SDS011;51449;51.676;5.812;2022-10-16T10:05:56;6.73;;;2.63;;
58250;SDS011;51449;51.676;5.812;2022-10-16T10:08:22;7.80;;;2.23;;
58250;SDS011;51449;51.676;5.812;2022-10-16T10:10:44;7.50;;;2.13;;
58250;SDS011;51449;51.676;5.812;2022-10-16T10:13:19;8.87;;;2.03;;
58250;SDS011;51449;51.676;5.812;2022-10-16T10:15:45;4.93;;;2.20;;
58250;SDS011;51449;51.676;5.812;2022-10-16T10:18:20;5.67;;;2.20;;
58250;SDS011;51449;51.676;5.812;2022-10-16T10:20:45;7.30;;;2.30;;
58250;SDS011;51449;51.676;5.812;2022-10-16T10:23:23;8.23;;;2.30;;
58250;SDS011;51449;51.676;5.812;2022-10-16T10:25:55;7.20;;;2.40;;
58250;SDS011;51449;51.676;5.812;2022-10-16T10:34:11;5.63;;;1.80;;
58250;SDS011;51449;51.676;5.812;2022-10-16T10:46:30;11.82;;;1.85;;
58250;SDS011;51449;51.676;5.812;2022-10-16T10:52:22;10.18;;;2.20;;
58250;SDS011;51449;51.676;5.812;2022-10-16T11:00:50;7.32;;;1.95;;
58250;SDS011;51449;51.676;5.812;2022-10-16T11:03:57;11.27;;;2.40;;
58250;SDS011;51449;51.676;5.812;2022-10-16T11:09:41;7.75;;;2.13;;
58250;SDS011;51449;51.676;5.812;2022-10-16T11:14:48;9.32;;;2.10;;
58250;SDS011;51449;51.676;5.812;2022-10-16T11:17:39;9.10;;;2.45;;
58250;SDS011;51449;51.676;5.812;2022-10-16T11:20:26;9.70;;;2.25;;
58250;SDS011;51449;51.676;5.812;2022-10-16T11:25:22;5.20;;;1.88;;
58250;SDS011;51449;51.676;5.812;2022-10-16T11:30:29;6.75;;;1.98;;
58250;SDS011;51449;51.676;5.812;2022-10-16T11:41:18;11.02;;;2.63;;
58250;SDS011;51449;51.676;5.812;2022-10-16T11:46:28;6.95;;;1.95;;
58250;SDS011;51449;51.676;5.812;2022-10-16T11:51:39;8.95;;;2.20;;
58250;SDS011;51449;51.676;5.812;2022-10-16T11:54:21;10.30;;;1.85;;
58250;SDS011;51449;51.676;5.812;2022-10-16T11:57:16;6.55;;;1.88;;
58250;SDS011;51449;51.676;5.812;2022-10-16T12:03:11;7.50;;;1.98;;
58250;SDS011;51449;51.676;5.812;2022-10-16T12:08:40;7.68;;;1.95;;
58250;SDS011;51449;51.676;5.812;2022-10-16T12:11:09;5.45;;;1.67;;
58250;SDS011;51449;51.676;5.812;2022-10-16T12:13:44;8.77;;;2.08;;
58250;SDS011;51449;51.676;5.812;2022-10-16T12:18:34;7.57;;;1.63;;
58250;SDS011;51449;51.676;5.812;2022-10-16T12:20:59;9.23;;;1.95;;
58250;SDS011;51449;51.676;5.812;2022-10-16T12:23:28;5.93;;;1.92;;
58250;SDS011;51449;51.676;5.812;2022-10-16T12:25:57;8.20;;;2.10;;
58250;SDS011;51449;51.676;5.812;2022-10-16T12:28:27;7.45;;;1.60;;
58250;SDS011;51449;51.676;5.812;2022-10-16T12:30:59;8.77;;;1.70;;
58250;SDS011;51449;51.676;5.812;2022-10-16T12:33:30;7.43;;;1.75;;
58250;SDS011;51449;51.676;5.812;2022-10-16T12:35:58;8.95;;;1.98;;
58250;SDS011;51449;51.676;5.812;2022-10-16T12:41:12;8.38;;;1.80;;
58250;SDS011;51449;51.676;5.812;2022-10-16T12:43:46;7.93;;;1.92;;
58250;SDS011;51449;51.676;5.812;2022-10-16T12:48:31;9.73;;;2.17;;
58250;SDS011;51449;51.676;5.812;2022-10-16T12:51:33;7.70;;;1.80;;
58250;SDS011;51449;51.676;5.812;2022-10-16T12:54:12;7.28;;;1.65;;
58250;SDS011;51449;51.676;5.812;2022-10-16T12:56:50;7.10;;;1.70;;
58250;SDS011;51449;51.676;5.812;2022-10-16T13:22:46;5.32;;;1.65;;
58250;SDS011;51449;51.676;5.812;2022-10-16T13:28:27;2.35;;;1.55;;
58250;SDS011;51449;51.676;5.812;2022-10-16T13:30:54;4.65;;;1.50;;
58250;SDS011;51449;51.676;5.812;2022-10-16T13:33:20;7.30;;;1.83;;
58250;SDS011;51449;51.676;5.812;2022-10-16T13:35:55;5.10;;;1.35;;
58250;SDS011;51449;51.676;5.812;2022-10-16T13:38:20;5.32;;;1.52;;
58250;SDS011;51449;51.676;5.812;2022-10-16T13:40:55;5.22;;;1.50;;
58250;SDS011;51449;51.676;5.812;2022-10-16T13:43:36;4.93;;;1.52;;
58250;SDS011;51449;51.676;5.812;2022-10-16T13:48:29;3.78;;;1.15;;
58250;SDS011;51449;51.676;5.812;2022-10-16T13:50:58;6.90;;;1.27;;
58250;SDS011;51449;51.676;5.812;2022-10-16T13:53:25;3.83;;;1.42;;
58250;SDS011;51449;51.676;5.812;2022-10-16T13:55:47;5.55;;;1.40;;
58250;SDS011;51449;51.676;5.812;2022-10-16T13:58:13;6.68;;;1.50;;
58250;SDS011;51449;51.676;5.812;2022-10-16T14:00:36;3.78;;;1.45;;
58250;SDS011;51449;51.676;5.812;2022-10-16T14:03:00;5.28;;;1.20;;
58250;SDS011;51449;51.676;5.812;2022-10-16T14:05:26;5.50;;;1.42;;
58250;SDS011;51449;51.676;5.812;2022-10-16T14:07:49;5.68;;;1.52;;
58250;SDS011;51449;51.676;5.812;2022-10-16T14:10:22;6.30;;;1.52;;
58250;SDS011;51449;51.676;5.812;2022-10-16T14:12:56;6.28;;;2.00;;
58250;SDS011;51449;51.676;5.812;2022-10-16T14:15:22;6.03;;;1.35;;
58250;SDS011;51449;51.676;5.812;2022-10-16T14:17:45;6.47;;;2.00;;
58250;SDS011;51449;51.676;5.812;2022-10-16T14:20:14;5.30;;;1.80;;
58250;SDS011;51449;51.676;5.812;2022-10-16T14:22:38;5.30;;;1.60;;
58250;SDS011;51449;51.676;5.812;2022-10-16T14:27:40;5.72;;;1.73;;
58250;SDS011;51449;51.676;5.812;2022-10-16T14:30:08;6.22;;;1.67;;
58250;SDS011;51449;51.676;5.812;2022-10-16T14:32:39;3.58;;;1.40;;
58250;SDS011;51449;51.676;5.812;2022-10-16T14:35:03;6.50;;;1.70;;
58250;SDS011;51449;51.676;5.812;2022-10-16T14:37:27;6.07;;;1.45;;
58250;SDS011;51449;51.676;5.812;2022-10-16T14:39:52;5.90;;;1.65;;
58250;SDS011;51449;51.676;5.812;2022-10-16T14:42:16;6.15;;;1.88;;
58250;SDS011;51449;51.676;5.812;2022-10-16T14:44:41;5.80;;;1.50;;
58250;SDS011;51449;51.676;5.812;2022-10-16T14:47:06;6.30;;;1.58;;
58250;SDS011;51449;51.676;5.812;2022-10-16T14:49:34;4.50;;;1.48;;
58250;SDS011;51449;51.676;5.812;2022-10-16T14:51:56;5.47;;;1.50;;
58250;SDS011;51449;51.676;5.812;2022-10-16T14:54:19;5.00;;;1.35;;
58250;SDS011;51449;51.676;5.812;2022-10-16T14:56:49;3.78;;;1.30;;
58250;SDS011;51449;51.676;5.812;2022-10-16T14:59:39;6.28;;;1.60;;
58250;SDS011;51449;51.676;5.812;2022-10-16T15:02:18;7.55;;;1.65;;
58250;SDS011;51449;51.676;5.812;2022-10-16T15:04:47;3.63;;;1.50;;
58250;SDS011;51449;51.676;5.812;2022-10-16T15:07:09;5.10;;;1.30;;
58250;SDS011;51449;51.676;5.812;2022-10-16T15:09:31;4.13;;;1.60;;
58250;SDS011;51449;51.676;5.812;2022-10-16T15:11:53;2.88;;;1.33;;
58250;SDS011;51449;51.676;5.812;2022-10-16T15:14:14;3.30;;;1.40;;
58250;SDS011;51449;51.676;5.812;2022-10-16T15:16:36;7.95;;;1.40;;
58250;SDS011;51449;51.676;5.812;2022-10-16T15:18:58;5.55;;;1.40;;
58250;SDS011;51449;51.676;5.812;2022-10-16T15:21:22;7.10;;;1.50;;
58250;SDS011;51449;51.676;5.812;2022-10-16T15:23:48;4.43;;;1.42;;
58250;SDS011;51449;51.676;5.812;2022-10-16T15:26:11;5.60;;;1.73;;
58250;SDS011;51449;51.676;5.812;2022-10-16T15:28:33;3.88;;;1.65;;
58250;SDS011;51449;51.676;5.812;2022-10-16T15:30:56;8.90;;;1.70;;
58250;SDS011;51449;51.676;5.812;2022-10-16T15:33:19;5.28;;;1.30;;
58250;SDS011;51449;51.676;5.812;2022-10-16T15:35:51;5.60;;;1.42;;
58250;SDS011;51449;51.676;5.812;2022-10-16T15:38:14;5.45;;;1.70;;
58250;SDS011;51449;51.676;5.812;2022-10-16T15:40:37;3.88;;;1.45;;
58250;SDS011;51449;51.676;5.812;2022-10-16T15:43:01;6.80;;;1.67;;
58250;SDS011;51449;51.676;5.812;2022-10-16T15:45:23;6.00;;;2.15;;
58250;SDS011;51449;51.676;5.812;2022-10-16T15:47:45;3.90;;;1.90;;
58250;SDS011;51449;51.676;5.812;2022-10-16T15:50:11;2.47;;;1.48;;
58250;SDS011;51449;51.676;5.812;2022-10-16T15:52:35;4.75;;;1.40;;
58250;SDS011;51449;51.676;5.812;2022-10-16T15:54:58;4.40;;;1.50;;
58250;SDS011;51449;51.676;5.812;2022-10-16T15:57:20;5.93;;;1.77;;
58250;SDS011;51449;51.676;5.812;2022-10-16T15:59:42;3.47;;;1.50;;
58250;SDS011;51449;51.676;5.812;2022-10-16T16:02:05;6.70;;;2.13;;
58250;SDS011;51449;51.676;5.812;2022-10-16T16:04:29;5.20;;;1.77;;
58250;SDS011;51449;51.676;5.812;2022-10-16T16:07:04;4.97;;;2.20;;
58250;SDS011;51449;51.676;5.812;2022-10-16T16:09:29;5.22;;;2.00;;
58250;SDS011;51449;51.676;5.812;2022-10-16T16:11:51;6.07;;;1.93;;
58250;SDS011;51449;51.676;5.812;2022-10-16T16:14:13;4.57;;;1.87;;
58250;SDS011;51449;51.676;5.812;2022-10-16T16:16:35;4.93;;;2.00;;
58250;SDS011;51449;51.676;5.812;2022-10-16T16:18:59;10.50;;;8.35;;
58250;SDS011;51449;51.676;5.812;2022-10-16T16:21:21;5.67;;;3.90;;
58250;SDS011;51449;51.676;5.812;2022-10-16T16:23:43;4.60;;;2.63;;
58250;SDS011;51449;51.676;5.812;2022-10-16T16:26:06;6.30;;;2.53;;
58250;SDS011;51449;51.676;5.812;2022-10-16T16:28:31;5.60;;;2.10;;
58250;SDS011;51449;51.676;5.812;2022-10-16T16:30:53;7.53;;;3.30;;
58250;SDS011;51449;51.676;5.812;2022-10-16T16:33:15;6.77;;;5.00;;
58250;SDS011;51449;51.676;5.812;2022-10-16T16:35:37;6.47;;;3.20;;
58250;SDS011;51449;51.676;5.812;2022-10-16T16:37:59;7.17;;;4.20;;
58250;SDS011;51449;51.676;5.812;2022-10-16T16:40:21;7.80;;;4.50;;
58250;SDS011;51449;51.676;5.812;2022-10-16T16:42:43;5.50;;;3.50;;
58250;SDS011;51449;51.676;5.812;2022-10-16T16:45:05;6.77;;;2.73;;
58250;SDS011;51449;51.676;5.812;2022-10-16T16:47:27;5.03;;;3.00;;
58250;SDS011;51449;51.676;5.812;2022-10-16T16:49:50;6.20;;;2.70;;
58250;SDS011;51449;51.676;5.812;2022-10-16T16:52:13;4.93;;;2.60;;
58250;SDS011;51449;51.676;5.812;2022-10-16T16:54:36;4.73;;;2.70;;